sensor_id;sensor_type;location;lat;lon;timestamp;P1;durP1;ratioP1;P2;durP2;ratioP2
50056;SDS011;36875;49.468;11.200;2023-04-26T00:02:16;2.50;;;1.20;;
50056;SDS011;36875;49.468;11.200;2023-04-26T00:04:43;3.10;;;1.27;;
50056;SDS011;36875;49.468;11.200;2023-04-26T00:07:11;3.60;;;1.25;;
50056;SDS011;36875;49.468;11.200;2023-04-26T00:09:37;1.65;;;1.17;;
50056;SDS011;36875;49.468;11.200;2023-04-26T00:12:05;3.72;;;1.40;;
50056;SDS011;36875;49.468;11.200;2023-04-26T00:14:31;2.85;;;1.23;;
50056;SDS011;36875;49.468;11.200;2023-04-26T00:16:58;2.80;;;1.20;;
50056;SDS011;36875;49.468;11.200;2023-04-26T00:19:23;2.88;;;1.30;;
50056;SDS011;36875;49.468;11.200;2023-04-26T00:21:50;2.75;;;1.50;;
50056;SDS011;36875;49.468;11.200;2023-04-26T00:24:15;3.53;;;1.20;;
50056;SDS011;36875;49.468;11.200;2023-04-26T00:26:41;5.05;;;1.50;;
50056;SDS011;36875;49.468;11.200;2023-04-26T00:29:07;3.60;;;1.38;;
50056;SDS011;36875;49.468;11.200;2023-04-26T00:31:32;2.28;;;1.20;;
50056;SDS011;36875;49.468;11.200;2023-04-26T00:33:58;2.05;;;1.20;;
50056;SDS011;36875;49.468;11.200;2023-04-26T00:36:23;1.70;;;1.10;;
50056;SDS011;36875;49.468;11.200;2023-04-26T00:38:50;3.35;;;1.27;;
50056;SDS011;36875;49.468;11.200;2023-04-26T00:41:15;3.35;;;1.40;;
50056;SDS011;36875;49.468;11.200;2023-04-26T00:43:41;3.80;;;1.17;;
50056;SDS011;36875;49.468;11.200;2023-04-26T00:46:07;2.40;;;1.20;;
50056;SDS011;36875;49.468;11.200;2023-04-26T00:48:33;3.03;;;1.30;;
50056;SDS011;36875;49.468;11.200;2023-04-26T00:50:58;2.53;;;1.30;;
50056;SDS011;36875;49.468;11.200;2023-04-26T00:53:25;3.35;;;1.30;;
50056;SDS011;36875;49.468;11.200;2023-04-26T00:55:52;4.00;;;1.20;;
50056;SDS011;36875;49.468;11.200;2023-04-26T00:58:18;3.05;;;1.23;;
50056;SDS011;36875;49.468;11.200;2023-04-26T01:00:43;3.65;;;1.30;;
50056;SDS011;36875;49.468;11.200;2023-04-26T01:03:09;1.98;;;1.15;;
50056;SDS011;36875;49.468;11.200;2023-04-26T01:05:36;2.90;;;1.23;;
50056;SDS011;36875;49.468;11.200;2023-04-26T01:08:01;2.42;;;1.13;;
50056;SDS011;36875;49.468;11.200;2023-04-26T01:10:28;2.38;;;1.20;;
50056;SDS011;36875;49.468;11.200;2023-04-26T01:12:56;2.08;;;1.27;;
50056;SDS011;36875;49.468;11.200;2023-04-26T01:15:22;2.88;;;1.27;;
50056;SDS011;36875;49.468;11.200;2023-04-26T01:17:48;2.70;;;1.40;;
50056;SDS011;36875;49.468;11.200;2023-04-26T01:20:14;3.40;;;1.33;;
50056;SDS011;36875;49.468;11.200;2023-04-26T01:22:41;1.95;;;1.23;;
50056;SDS011;36875;49.468;11.200;2023-04-26T01:25:07;2.88;;;1.25;;
50056;SDS011;36875;49.468;11.200;2023-04-26T01:27:36;2.03;;;1.00;;
50056;SDS011;36875;49.468;11.200;2023-04-26T01:30:01;2.35;;;1.33;;
50056;SDS011;36875;49.468;11.200;2023-04-26T01:32:27;2.28;;;1.10;;
50056;SDS011;36875;49.468;11.200;2023-04-26T01:34:52;3.38;;;1.17;;
50056;SDS011;36875;49.468;11.200;2023-04-26T01:37:18;1.85;;;1.02;;
50056;SDS011;36875;49.468;11.200;2023-04-26T01:39:45;2.53;;;1.13;;
50056;SDS011;36875;49.468;11.200;2023-04-26T01:42:10;3.15;;;1.38;;
50056;SDS011;36875;49.468;11.200;2023-04-26T01:44:36;2.35;;;1.23;;
50056;SDS011;36875;49.468;11.200;2023-04-26T01:47:01;3.28;;;1.10;;
50056;SDS011;36875;49.468;11.200;2023-04-26T01:49:27;2.47;;;1.20;;
50056;SDS011;36875;49.468;11.200;2023-04-26T01:51:53;3.17;;;1.48;;
50056;SDS011;36875;49.468;11.200;2023-04-26T01:54:19;2.58;;;1.20;;
50056;SDS011;36875;49.468;11.200;2023-04-26T01:56:46;1.88;;;1.23;;
50056;SDS011;36875;49.468;11.200;2023-04-26T01:59:12;2.25;;;1.27;;
50056;SDS011;36875;49.468;11.200;2023-04-26T02:01:37;2.22;;;1.20;;
50056;SDS011;36875;49.468;11.200;2023-04-26T02:04:05;2.90;;;1.10;;
50056;SDS011;36875;49.468;11.200;2023-04-26T02:06:31;2.78;;;1.13;;
50056;SDS011;36875;49.468;11.200;2023-04-26T02:08:56;1.90;;;1.02;;
50056;SDS011;36875;49.468;11.200;2023-04-26T02:11:22;3.13;;;1.20;;
50056;SDS011;36875;49.468;11.200;2023-04-26T02:13:49;2.17;;;1.17;;
50056;SDS011;36875;49.468;11.200;2023-04-26T02:16:15;1.95;;;0.98;;
50056;SDS011;36875;49.468;11.200;2023-04-26T02:18:41;2.75;;;1.25;;
50056;SDS011;36875;49.468;11.200;2023-04-26T02:21:06;2.42;;;1.17;;
50056;SDS011;36875;49.468;11.200;2023-04-26T02:23:32;2.63;;;1.25;;
50056;SDS011;36875;49.468;11.200;2023-04-26T02:25:58;4.28;;;1.30;;
50056;SDS011;36875;49.468;11.200;2023-04-26T02:28:23;2.72;;;1.20;;
50056;SDS011;36875;49.468;11.200;2023-04-26T02:30:50;2.33;;;1.02;;
50056;SDS011;36875;49.468;11.200;2023-04-26T02:33:15;2.28;;;1.20;;
50056;SDS011;36875;49.468;11.200;2023-04-26T02:35:41;2.08;;;1.08;;
50056;SDS011;36875;49.468;11.200;2023-04-26T02:38:06;2.60;;;1.00;;
50056;SDS011;36875;49.468;11.200;2023-04-26T02:40:32;2.53;;;1.30;;
50056;SDS011;36875;49.468;11.200;2023-04-26T02:42:57;1.98;;;1.25;;
50056;SDS011;36875;49.468;11.200;2023-04-26T02:45:23;1.77;;;0.90;;
50056;SDS011;36875;49.468;11.200;2023-04-26T02:47:50;2.22;;;1.10;;
50056;SDS011;36875;49.468;11.200;2023-04-26T02:50:15;1.65;;;0.93;;
50056;SDS011;36875;49.468;11.200;2023-04-26T02:52:40;1.65;;;0.90;;
50056;SDS011;36875;49.468;11.200;2023-04-26T02:55:07;2.58;;;1.23;;
50056;SDS011;36875;49.468;11.200;2023-04-26T02:57:33;1.70;;;0.90;;
50056;SDS011;36875;49.468;11.200;2023-04-26T02:59:58;1.67;;;1.00;;
50056;SDS011;36875;49.468;11.200;2023-04-26T03:02:24;2.13;;;0.95;;
50056;SDS011;36875;49.468;11.200;2023-04-26T03:04:51;2.47;;;1.27;;
50056;SDS011;36875;49.468;11.200;2023-04-26T03:07:17;1.98;;;0.98;;
50056;SDS011;36875;49.468;11.200;2023-04-26T03:09:43;2.13;;;1.10;;
50056;SDS011;36875;49.468;11.200;2023-04-26T03:12:08;2.13;;;1.23;;
50056;SDS011;36875;49.468;11.200;2023-04-26T03:14:34;1.50;;;0.98;;
50056;SDS011;36875;49.468;11.200;2023-04-26T03:17:00;1.95;;;1.15;;
50056;SDS011;36875;49.468;11.200;2023-04-26T03:19:26;1.90;;;1.10;;
50056;SDS011;36875;49.468;11.200;2023-04-26T03:21:53;1.67;;;0.90;;
50056;SDS011;36875;49.468;11.200;2023-04-26T03:24:19;1.77;;;1.10;;
50056;SDS011;36875;49.468;11.200;2023-04-26T03:26:45;1.60;;;1.17;;
50056;SDS011;36875;49.468;11.200;2023-04-26T03:29:10;2.38;;;0.93;;
50056;SDS011;36875;49.468;11.200;2023-04-26T03:31:36;2.65;;;1.23;;
50056;SDS011;36875;49.468;11.200;2023-04-26T03:34:02;2.05;;;1.05;;
50056;SDS011;36875;49.468;11.200;2023-04-26T03:36:28;2.58;;;1.10;;
50056;SDS011;36875;49.468;11.200;2023-04-26T03:38:55;2.97;;;1.23;;
50056;SDS011;36875;49.468;11.200;2023-04-26T03:41:20;1.27;;;0.90;;
50056;SDS011;36875;49.468;11.200;2023-04-26T03:43:46;2.42;;;1.10;;
50056;SDS011;36875;49.468;11.200;2023-04-26T03:46:12;2.17;;;1.00;;
50056;SDS011;36875;49.468;11.200;2023-04-26T03:48:37;2.15;;;1.23;;
50056;SDS011;36875;49.468;11.200;2023-04-26T03:51:03;1.38;;;1.00;;
50056;SDS011;36875;49.468;11.200;2023-04-26T03:53:30;1.85;;;1.10;;
50056;SDS011;36875;49.468;11.200;2023-04-26T03:55:57;1.40;;;1.00;;
50056;SDS011;36875;49.468;11.200;2023-04-26T03:58:23;2.25;;;1.35;;
50056;SDS011;36875;49.468;11.200;2023-04-26T04:00:49;1.42;;;1.00;;
50056;SDS011;36875;49.468;11.200;2023-04-26T04:03:14;2.55;;;1.10;;
50056;SDS011;36875;49.468;11.200;2023-04-26T04:05:40;1.67;;;0.88;;
50056;SDS011;36875;49.468;11.200;2023-04-26T04:08:05;2.42;;;1.10;;
50056;SDS011;36875;49.468;11.200;2023-04-26T04:10:31;2.50;;;1.20;;
50056;SDS011;36875;49.468;11.200;2023-04-26T04:12:58;1.45;;;0.70;;
50056;SDS011;36875;49.468;11.200;2023-04-26T04:15:23;2.72;;;1.17;;
50056;SDS011;36875;49.468;11.200;2023-04-26T04:17:49;1.83;;;0.95;;
50056;SDS011;36875;49.468;11.200;2023-04-26T04:20:14;3.53;;;1.50;;
50056;SDS011;36875;49.468;11.200;2023-04-26T04:22:40;2.42;;;1.15;;
50056;SDS011;36875;49.468;11.200;2023-04-26T04:25:05;2.00;;;1.00;;
50056;SDS011;36875;49.468;11.200;2023-04-26T04:27:31;1.42;;;0.80;;
50056;SDS011;36875;49.468;11.200;2023-04-26T04:29:58;3.05;;;1.00;;
50056;SDS011;36875;49.468;11.200;2023-04-26T04:32:27;2.47;;;1.00;;
50056;SDS011;36875;49.468;11.200;2023-04-26T04:34:53;1.80;;;1.10;;
50056;SDS011;36875;49.468;11.200;2023-04-26T04:37:18;2.92;;;1.20;;
50056;SDS011;36875;49.468;11.200;2023-04-26T04:39:45;2.05;;;1.00;;
50056;SDS011;36875;49.468;11.200;2023-04-26T04:42:10;1.45;;;0.93;;
50056;SDS011;36875;49.468;11.200;2023-04-26T04:44:36;2.17;;;1.00;;
50056;SDS011;36875;49.468;11.200;2023-04-26T04:47:03;1.52;;;1.20;;
50056;SDS011;36875;49.468;11.200;2023-04-26T04:49:29;3.95;;;1.20;;
50056;SDS011;36875;49.468;11.200;2023-04-26T04:51:55;1.80;;;1.10;;
50056;SDS011;36875;49.468;11.200;2023-04-26T04:54:21;1.92;;;0.93;;
50056;SDS011;36875;49.468;11.200;2023-04-26T04:56:47;1.80;;;1.10;;
50056;SDS011;36875;49.468;11.200;2023-04-26T04:59:12;2.33;;;1.20;;
50056;SDS011;36875;49.468;11.200;2023-04-26T05:01:38;2.40;;;1.20;;
50056;SDS011;36875;49.468;11.200;2023-04-26T05:04:05;1.58;;;0.98;;
50056;SDS011;36875;49.468;11.200;2023-04-26T05:06:31;1.55;;;0.90;;
50056;SDS011;36875;49.468;11.200;2023-04-26T05:08:57;1.88;;;1.15;;
50056;SDS011;36875;49.468;11.200;2023-04-26T05:11:22;1.75;;;1.13;;
50056;SDS011;36875;49.468;11.200;2023-04-26T05:13:48;1.67;;;0.77;;
50056;SDS011;36875;49.468;11.200;2023-04-26T05:16:14;1.30;;;1.00;;
50056;SDS011;36875;49.468;11.200;2023-04-26T05:18:40;2.55;;;1.00;;
50056;SDS011;36875;49.468;11.200;2023-04-26T05:21:08;2.58;;;1.10;;
50056;SDS011;36875;49.468;11.200;2023-04-26T05:23:34;2.42;;;1.10;;
50056;SDS011;36875;49.468;11.200;2023-04-26T05:26:00;4.45;;;1.55;;
50056;SDS011;36875;49.468;11.200;2023-04-26T05:28:26;4.43;;;1.30;;
50056;SDS011;36875;49.468;11.200;2023-04-26T05:30:51;2.88;;;1.25;;
50056;SDS011;36875;49.468;11.200;2023-04-26T05:33:17;2.70;;;1.30;;
50056;SDS011;36875;49.468;11.200;2023-04-26T05:35:42;4.85;;;1.27;;
50056;SDS011;36875;49.468;11.200;2023-04-26T05:38:09;11.07;;;2.42;;
50056;SDS011;36875;49.468;11.200;2023-04-26T05:40:34;6.70;;;1.48;;
50056;SDS011;36875;49.468;11.200;2023-04-26T05:43:00;7.95;;;1.42;;
50056;SDS011;36875;49.468;11.200;2023-04-26T05:45:25;5.40;;;1.50;;
50056;SDS011;36875;49.468;11.200;2023-04-26T05:47:51;7.35;;;1.80;;
50056;SDS011;36875;49.468;11.200;2023-04-26T05:50:16;5.18;;;1.60;;
50056;SDS011;36875;49.468;11.200;2023-04-26T05:52:42;3.83;;;1.60;;
50056;SDS011;36875;49.468;11.200;2023-04-26T05:55:09;8.75;;;2.85;;
50056;SDS011;36875;49.468;11.200;2023-04-26T05:57:35;5.70;;;2.00;;
50056;SDS011;36875;49.468;11.200;2023-04-26T06:00:01;5.97;;;1.60;;
50056;SDS011;36875;49.468;11.200;2023-04-26T06:02:29;6.07;;;1.77;;
50056;SDS011;36875;49.468;11.200;2023-04-26T06:04:54;10.63;;;1.80;;
50056;SDS011;36875;49.468;11.200;2023-04-26T06:07:21;6.00;;;1.90;;
50056;SDS011;36875;49.468;11.200;2023-04-26T06:09:46;7.00;;;1.90;;
50056;SDS011;36875;49.468;11.200;2023-04-26T06:12:13;4.75;;;1.63;;
50056;SDS011;36875;49.468;11.200;2023-04-26T06:14:38;5.35;;;1.70;;
50056;SDS011;36875;49.468;11.200;2023-04-26T06:17:04;5.70;;;1.83;;
50056;SDS011;36875;49.468;11.200;2023-04-26T06:19:30;9.63;;;2.05;;
50056;SDS011;36875;49.468;11.200;2023-04-26T06:21:55;10.00;;;2.75;;
50056;SDS011;36875;49.468;11.200;2023-04-26T06:24:21;12.60;;;2.40;;
50056;SDS011;36875;49.468;11.200;2023-04-26T06:26:46;6.40;;;2.22;;
50056;SDS011;36875;49.468;11.200;2023-04-26T06:29:13;11.68;;;2.28;;
50056;SDS011;36875;49.468;11.200;2023-04-26T06:31:39;11.80;;;2.00;;
50056;SDS011;36875;49.468;11.200;2023-04-26T06:34:04;9.70;;;2.50;;
50056;SDS011;36875;49.468;11.200;2023-04-26T06:36:30;9.07;;;2.38;;
50056;SDS011;36875;49.468;11.200;2023-04-26T06:38:56;7.90;;;2.20;;
50056;SDS011;36875;49.468;11.200;2023-04-26T06:41:22;16.55;;;2.53;;
50056;SDS011;36875;49.468;11.200;2023-04-26T06:43:48;6.25;;;2.33;;
50056;SDS011;36875;49.468;11.200;2023-04-26T06:46:14;12.63;;;2.42;;
50056;SDS011;36875;49.468;11.200;2023-04-26T06:48:40;9.75;;;2.60;;
50056;SDS011;36875;49.468;11.200;2023-04-26T06:51:06;10.35;;;2.17;;
50056;SDS011;36875;49.468;11.200;2023-04-26T06:53:32;6.80;;;2.13;;
50056;SDS011;36875;49.468;11.200;2023-04-26T06:55:58;9.73;;;2.47;;
50056;SDS011;36875;49.468;11.200;2023-04-26T06:58:23;8.93;;;1.92;;
50056;SDS011;36875;49.468;11.200;2023-04-26T07:00:49;14.63;;;2.30;;
50056;SDS011;36875;49.468;11.200;2023-04-26T07:03:16;11.70;;;2.63;;
50056;SDS011;36875;49.468;11.200;2023-04-26T07:05:41;6.25;;;2.00;;
50056;SDS011;36875;49.468;11.200;2023-04-26T07:08:07;7.72;;;1.83;;
50056;SDS011;36875;49.468;11.200;2023-04-26T07:10:32;8.13;;;2.00;;
50056;SDS011;36875;49.468;11.200;2023-04-26T07:12:58;4.25;;;1.88;;
50056;SDS011;36875;49.468;11.200;2023-04-26T07:15:24;7.53;;;2.33;;
50056;SDS011;36875;49.468;11.200;2023-04-26T07:17:50;6.03;;;2.45;;
50056;SDS011;36875;49.468;11.200;2023-04-26T07:20:17;7.40;;;2.38;;
50056;SDS011;36875;49.468;11.200;2023-04-26T07:22:45;6.88;;;2.08;;
50056;SDS011;36875;49.468;11.200;2023-04-26T07:25:10;9.30;;;2.30;;
50056;SDS011;36875;49.468;11.200;2023-04-26T07:27:36;10.77;;;2.60;;
50056;SDS011;36875;49.468;11.200;2023-04-26T07:30:02;17.60;;;2.78;;
50056;SDS011;36875;49.468;11.200;2023-04-26T07:32:29;10.88;;;2.42;;
50056;SDS011;36875;49.468;11.200;2023-04-26T07:34:54;10.45;;;2.65;;
50056;SDS011;36875;49.468;11.200;2023-04-26T07:37:22;13.50;;;2.88;;
50056;SDS011;36875;49.468;11.200;2023-04-26T07:39:47;9.38;;;2.63;;
50056;SDS011;36875;49.468;11.200;2023-04-26T07:42:13;9.90;;;2.85;;
50056;SDS011;36875;49.468;11.200;2023-04-26T07:44:39;12.70;;;3.10;;
50056;SDS011;36875;49.468;11.200;2023-04-26T07:47:04;10.88;;;3.08;;
50056;SDS011;36875;49.468;11.200;2023-04-26T07:49:35;13.82;;;3.13;;
50056;SDS011;36875;49.468;11.200;2023-04-26T07:52:01;15.57;;;3.00;;
50056;SDS011;36875;49.468;11.200;2023-04-26T07:54:28;9.27;;;2.65;;
50056;SDS011;36875;49.468;11.200;2023-04-26T07:56:53;10.80;;;2.75;;
50056;SDS011;36875;49.468;11.200;2023-04-26T07:59:19;13.15;;;3.28;;
50056;SDS011;36875;49.468;11.200;2023-04-26T08:01:45;13.50;;;2.92;;
50056;SDS011;36875;49.468;11.200;2023-04-26T08:04:10;13.57;;;3.45;;
50056;SDS011;36875;49.468;11.200;2023-04-26T08:06:36;13.10;;;4.15;;
50056;SDS011;36875;49.468;11.200;2023-04-26T08:09:02;8.60;;;2.50;;
50056;SDS011;36875;49.468;11.200;2023-04-26T08:11:30;10.98;;;2.90;;
50056;SDS011;36875;49.468;11.200;2023-04-26T08:13:56;9.48;;;3.00;;
50056;SDS011;36875;49.468;11.200;2023-04-26T08:16:22;10.35;;;3.10;;
50056;SDS011;36875;49.468;11.200;2023-04-26T08:18:47;9.02;;;2.70;;
50056;SDS011;36875;49.468;11.200;2023-04-26T08:21:13;14.45;;;3.25;;
50056;SDS011;36875;49.468;11.200;2023-04-26T08:23:39;11.88;;;2.90;;
50056;SDS011;36875;49.468;11.200;2023-04-26T08:26:05;7.90;;;2.83;;
50056;SDS011;36875;49.468;11.200;2023-04-26T08:28:32;12.48;;;3.10;;
50056;SDS011;36875;49.468;11.200;2023-04-26T08:30:59;8.43;;;2.58;;
50056;SDS011;36875;49.468;11.200;2023-04-26T08:33:25;11.00;;;2.78;;
50056;SDS011;36875;49.468;11.200;2023-04-26T08:35:50;9.73;;;2.50;;
50056;SDS011;36875;49.468;11.200;2023-04-26T08:38:16;12.30;;;2.78;;
50056;SDS011;36875;49.468;11.200;2023-04-26T08:40:42;10.85;;;3.17;;
50056;SDS011;36875;49.468;11.200;2023-04-26T08:43:10;10.20;;;2.90;;
50056;SDS011;36875;49.468;11.200;2023-04-26T08:45:40;13.40;;;2.72;;
50056;SDS011;36875;49.468;11.200;2023-04-26T08:48:10;8.00;;;2.53;;
50056;SDS011;36875;49.468;11.200;2023-04-26T08:50:39;8.60;;;2.45;;
50056;SDS011;36875;49.468;11.200;2023-04-26T08:53:08;9.35;;;3.25;;
50056;SDS011;36875;49.468;11.200;2023-04-26T08:55:37;15.82;;;3.22;;
50056;SDS011;36875;49.468;11.200;2023-04-26T08:58:07;11.68;;;2.50;;
50056;SDS011;36875;49.468;11.200;2023-04-26T09:00:33;10.57;;;2.75;;
50056;SDS011;36875;49.468;11.200;2023-04-26T09:03:00;9.18;;;2.67;;
50056;SDS011;36875;49.468;11.200;2023-04-26T09:05:26;13.23;;;4.28;;
50056;SDS011;36875;49.468;11.200;2023-04-26T09:07:53;7.57;;;2.33;;
50056;SDS011;36875;49.468;11.200;2023-04-26T09:10:21;8.95;;;2.30;;
50056;SDS011;36875;49.468;11.200;2023-04-26T09:12:49;9.77;;;2.35;;
50056;SDS011;36875;49.468;11.200;2023-04-26T09:15:16;9.18;;;2.22;;
50056;SDS011;36875;49.468;11.200;2023-04-26T09:17:42;9.00;;;2.20;;
50056;SDS011;36875;49.468;11.200;2023-04-26T09:20:20;7.28;;;2.65;;
50056;SDS011;36875;49.468;11.200;2023-04-26T09:22:47;8.93;;;2.40;;
50056;SDS011;36875;49.468;11.200;2023-04-26T09:25:14;8.00;;;2.13;;
50056;SDS011;36875;49.468;11.200;2023-04-26T09:27:44;11.95;;;2.63;;
50056;SDS011;36875;49.468;11.200;2023-04-26T09:30:13;8.57;;;2.00;;
50056;SDS011;36875;49.468;11.200;2023-04-26T09:32:45;6.25;;;2.20;;
50056;SDS011;36875;49.468;11.200;2023-04-26T09:35:21;9.50;;;2.05;;
50056;SDS011;36875;49.468;11.200;2023-04-26T09:37:53;10.63;;;2.40;;
50056;SDS011;36875;49.468;11.200;2023-04-26T09:40:20;7.13;;;2.30;;
50056;SDS011;36875;49.468;11.200;2023-04-26T09:42:55;10.20;;;2.70;;
50056;SDS011;36875;49.468;11.200;2023-04-26T09:45:21;12.40;;;2.70;;
50056;SDS011;36875;49.468;11.200;2023-04-26T09:47:48;9.27;;;2.28;;
50056;SDS011;36875;49.468;11.200;2023-04-26T09:50:13;10.65;;;2.25;;
50056;SDS011;36875;49.468;11.200;2023-04-26T09:52:51;13.55;;;2.50;;
50056;SDS011;36875;49.468;11.200;2023-04-26T09:55:20;7.57;;;2.15;;
50056;SDS011;36875;49.468;11.200;2023-04-26T09:57:51;9.77;;;2.05;;
50056;SDS011;36875;49.468;11.200;2023-04-26T10:00:17;8.15;;;2.25;;
50056;SDS011;36875;49.468;11.200;2023-04-26T10:02:43;8.15;;;1.60;;
50056;SDS011;36875;49.468;11.200;2023-04-26T10:05:10;8.27;;;2.38;;
50056;SDS011;36875;49.468;11.200;2023-04-26T10:07:38;10.35;;;2.10;;
50056;SDS011;36875;49.468;11.200;2023-04-26T10:10:05;8.50;;;2.00;;
50056;SDS011;36875;49.468;11.200;2023-04-26T10:12:31;6.32;;;1.95;;
50056;SDS011;36875;49.468;11.200;2023-04-26T10:14:58;8.70;;;2.35;;
50056;SDS011;36875;49.468;11.200;2023-04-26T10:17:24;6.30;;;2.13;;
50056;SDS011;36875;49.468;11.200;2023-04-26T10:19:54;10.35;;;2.65;;
50056;SDS011;36875;49.468;11.200;2023-04-26T10:22:23;12.00;;;2.08;;
50056;SDS011;36875;49.468;11.200;2023-04-26T10:24:54;7.20;;;1.70;;
50056;SDS011;36875;49.468;11.200;2023-04-26T10:30:14;6.15;;;2.00;;
50056;SDS011;36875;49.468;11.200;2023-04-26T10:35:41;6.72;;;1.95;;
50056;SDS011;36875;49.468;11.200;2023-04-26T10:38:28;7.18;;;2.33;;
50056;SDS011;36875;49.468;11.200;2023-04-26T10:40:55;7.78;;;1.80;;
50056;SDS011;36875;49.468;11.200;2023-04-26T10:43:40;7.50;;;1.98;;
50056;SDS011;36875;49.468;11.200;2023-04-26T10:49:13;6.13;;;1.70;;
50056;SDS011;36875;49.468;11.200;2023-04-26T10:51:39;7.70;;;1.85;;
50056;SDS011;36875;49.468;11.200;2023-04-26T10:54:05;9.27;;;2.38;;
50056;SDS011;36875;49.468;11.200;2023-04-26T10:56:51;5.35;;;1.67;;
50056;SDS011;36875;49.468;11.200;2023-04-26T10:59:18;10.63;;;2.30;;
50056;SDS011;36875;49.468;11.200;2023-04-26T11:01:46;4.88;;;1.60;;
50056;SDS011;36875;49.468;11.200;2023-04-26T11:04:12;6.30;;;2.38;;
50056;SDS011;36875;49.468;11.200;2023-04-26T11:06:47;7.90;;;2.03;;
50056;SDS011;36875;49.468;11.200;2023-04-26T11:09:32;7.82;;;1.90;;
50056;SDS011;36875;49.468;11.200;2023-04-26T11:12:04;9.10;;;2.08;;
50056;SDS011;36875;49.468;11.200;2023-04-26T11:14:31;8.35;;;2.30;;
50056;SDS011;36875;49.468;11.200;2023-04-26T11:16:57;7.80;;;2.17;;
50056;SDS011;36875;49.468;11.200;2023-04-26T11:19:22;6.65;;;1.95;;
50056;SDS011;36875;49.468;11.200;2023-04-26T11:21:48;6.35;;;1.58;;
50056;SDS011;36875;49.468;11.200;2023-04-26T11:24:13;6.53;;;1.45;;
50056;SDS011;36875;49.468;11.200;2023-04-26T11:26:39;6.38;;;1.85;;
50056;SDS011;36875;49.468;11.200;2023-04-26T11:29:07;7.47;;;1.77;;
50056;SDS011;36875;49.468;11.200;2023-04-26T11:31:34;8.20;;;1.90;;
50056;SDS011;36875;49.468;11.200;2023-04-26T11:34:02;7.15;;;1.92;;
50056;SDS011;36875;49.468;11.200;2023-04-26T11:36:28;7.47;;;1.80;;
50056;SDS011;36875;49.468;11.200;2023-04-26T11:38:54;10.60;;;2.38;;
50056;SDS011;36875;49.468;11.200;2023-04-26T11:41:21;7.75;;;2.63;;
50056;SDS011;36875;49.468;11.200;2023-04-26T11:43:48;7.35;;;2.22;;
50056;SDS011;36875;49.468;11.200;2023-04-26T11:46:14;5.32;;;1.80;;
50056;SDS011;36875;49.468;11.200;2023-04-26T11:48:43;8.80;;;2.08;;
50056;SDS011;36875;49.468;11.200;2023-04-26T11:51:10;8.70;;;1.88;;
50056;SDS011;36875;49.468;11.200;2023-04-26T11:53:36;9.35;;;1.90;;
50056;SDS011;36875;49.468;11.200;2023-04-26T11:56:02;7.07;;;1.90;;
50056;SDS011;36875;49.468;11.200;2023-04-26T11:58:29;12.30;;;1.65;;
50056;SDS011;36875;49.468;11.200;2023-04-26T12:00:55;8.98;;;1.80;;
50056;SDS011;36875;49.468;11.200;2023-04-26T12:03:23;8.43;;;2.10;;
50056;SDS011;36875;49.468;11.200;2023-04-26T12:05:53;7.55;;;1.88;;
50056;SDS011;36875;49.468;11.200;2023-04-26T12:08:22;9.45;;;1.73;;
50056;SDS011;36875;49.468;11.200;2023-04-26T12:10:48;6.40;;;1.73;;
50056;SDS011;36875;49.468;11.200;2023-04-26T12:13:14;5.95;;;1.63;;
50056;SDS011;36875;49.468;11.200;2023-04-26T12:15:40;6.32;;;1.70;;
50056;SDS011;36875;49.468;11.200;2023-04-26T12:18:06;9.50;;;1.52;;
50056;SDS011;36875;49.468;11.200;2023-04-26T12:20:34;7.30;;;1.75;;
50056;SDS011;36875;49.468;11.200;2023-04-26T12:23:02;8.75;;;1.80;;
50056;SDS011;36875;49.468;11.200;2023-04-26T12:25:30;6.55;;;1.77;;
50056;SDS011;36875;49.468;11.200;2023-04-26T12:27:56;6.82;;;1.63;;
50056;SDS011;36875;49.468;11.200;2023-04-26T12:30:21;9.15;;;1.70;;
50056;SDS011;36875;49.468;11.200;2023-04-26T12:32:47;7.78;;;1.90;;
50056;SDS011;36875;49.468;11.200;2023-04-26T12:35:13;9.68;;;1.73;;
50056;SDS011;36875;49.468;11.200;2023-04-26T12:37:40;4.47;;;1.30;;
50056;SDS011;36875;49.468;11.200;2023-04-26T12:40:06;6.85;;;1.67;;
50056;SDS011;36875;49.468;11.200;2023-04-26T12:42:33;9.57;;;1.90;;
50056;SDS011;36875;49.468;11.200;2023-04-26T12:44:59;6.60;;;1.60;;
50056;SDS011;36875;49.468;11.200;2023-04-26T12:47:24;4.93;;;1.67;;
50056;SDS011;36875;49.468;11.200;2023-04-26T12:49:50;6.88;;;1.50;;
50056;SDS011;36875;49.468;11.200;2023-04-26T12:52:16;5.43;;;1.40;;
50056;SDS011;36875;49.468;11.200;2023-04-26T12:54:43;5.88;;;2.05;;
50056;SDS011;36875;49.468;11.200;2023-04-26T12:57:08;7.60;;;1.75;;
50056;SDS011;36875;49.468;11.200;2023-04-26T12:59:34;6.20;;;1.58;;
50056;SDS011;36875;49.468;11.200;2023-04-26T13:02:00;6.35;;;1.60;;
50056;SDS011;36875;49.468;11.200;2023-04-26T13:04:27;3.05;;;1.25;;
50056;SDS011;36875;49.468;11.200;2023-04-26T13:06:53;7.20;;;1.80;;
50056;SDS011;36875;49.468;11.200;2023-04-26T13:09:19;4.25;;;1.40;;
50056;SDS011;36875;49.468;11.200;2023-04-26T13:11:46;4.88;;;1.35;;
50056;SDS011;36875;49.468;11.200;2023-04-26T13:14:12;3.25;;;1.20;;
50056;SDS011;36875;49.468;11.200;2023-04-26T13:16:38;4.53;;;1.30;;
50056;SDS011;36875;49.468;11.200;2023-04-26T13:19:07;2.88;;;1.10;;
50056;SDS011;36875;49.468;11.200;2023-04-26T13:21:33;3.03;;;1.33;;
50056;SDS011;36875;49.468;11.200;2023-04-26T13:23:58;4.78;;;1.35;;
50056;SDS011;36875;49.468;11.200;2023-04-26T13:26:24;6.97;;;1.25;;
50056;SDS011;36875;49.468;11.200;2023-04-26T13:28:51;4.18;;;1.25;;
50056;SDS011;36875;49.468;11.200;2023-04-26T13:31:16;4.70;;;1.42;;
50056;SDS011;36875;49.468;11.200;2023-04-26T13:33:43;5.75;;;1.45;;
50056;SDS011;36875;49.468;11.200;2023-04-26T13:36:09;4.25;;;1.38;;
50056;SDS011;36875;49.468;11.200;2023-04-26T13:38:35;4.45;;;1.60;;
50056;SDS011;36875;49.468;11.200;2023-04-26T13:41:01;4.88;;;1.42;;
50056;SDS011;36875;49.468;11.200;2023-04-26T13:43:26;8.68;;;1.63;;
50056;SDS011;36875;49.468;11.200;2023-04-26T13:45:53;4.57;;;1.73;;
50056;SDS011;36875;49.468;11.200;2023-04-26T13:48:19;5.07;;;1.70;;
50056;SDS011;36875;49.468;11.200;2023-04-26T13:50:44;7.13;;;1.98;;
50056;SDS011;36875;49.468;11.200;2023-04-26T13:53:10;6.70;;;1.77;;
50056;SDS011;36875;49.468;11.200;2023-04-26T13:55:35;5.05;;;2.28;;
50056;SDS011;36875;49.468;11.200;2023-04-26T13:58:01;5.47;;;1.23;;
50056;SDS011;36875;49.468;11.200;2023-04-26T14:00:26;3.72;;;1.40;;
50056;SDS011;36875;49.468;11.200;2023-04-26T14:02:53;5.60;;;1.30;;
50056;SDS011;36875;49.468;11.200;2023-04-26T14:05:19;7.20;;;1.48;;
50056;SDS011;36875;49.468;11.200;2023-04-26T14:07:44;4.22;;;1.38;;
50056;SDS011;36875;49.468;11.200;2023-04-26T14:10:10;7.68;;;1.70;;
50056;SDS011;36875;49.468;11.200;2023-04-26T14:12:36;4.85;;;1.50;;
50056;SDS011;36875;49.468;11.200;2023-04-26T14:15:02;2.05;;;1.10;;
50056;SDS011;36875;49.468;11.200;2023-04-26T14:17:29;3.65;;;1.20;;
50056;SDS011;36875;49.468;11.200;2023-04-26T14:19:57;3.75;;;1.35;;
50056;SDS011;36875;49.468;11.200;2023-04-26T14:22:23;5.25;;;1.00;;
50056;SDS011;36875;49.468;11.200;2023-04-26T14:24:48;5.95;;;1.30;;
50056;SDS011;36875;49.468;11.200;2023-04-26T14:27:14;5.75;;;1.35;;
50056;SDS011;36875;49.468;11.200;2023-04-26T14:29:39;3.80;;;1.42;;
50056;SDS011;36875;49.468;11.200;2023-04-26T14:32:05;4.75;;;1.30;;
50056;SDS011;36875;49.468;11.200;2023-04-26T14:34:32;4.70;;;1.20;;
50056;SDS011;36875;49.468;11.200;2023-04-26T14:37:01;6.40;;;1.80;;
50056;SDS011;36875;49.468;11.200;2023-04-26T14:39:28;5.07;;;2.13;;